SCCI/PUQ METAR and TAF weather

Enter ICAO airport designator
Station Type Date Time Source
SCCI METAR 2019/10/14 06:00 UTC NOAA

SCCI 140600Z 28009KT 9999 FEW023 SCT100 BKN200 04/00 Q1029 NOSIG


Station Type Date Time Source
SCCI Decoded METAR 2019/10/14 06:00 UTC NOAA

Punta Arenas, Chile (SCCI) 53-00S 070-51W 33M
Oct 14, 2019 - 02:00 AM EDT / 2019.10.14 0600 UTC
Wind: from the W (280 degrees) at 10 MPH (9 KT):0
Visibility: greater than 7 mile(s):0
Sky conditions: mostly cloudy
Temperature: 39 F (4 C)
Dew Point: 32 F (0 C)
Relative Humidity: 75%
Pressure (altimeter): 30.39 in. Hg (1029 hPa)
ob: SCCI 140600Z 28009KT 9999 FEW023 SCT100 BKN200 04/00 Q1029 NOSIG
cycle: 6

Station Type Date Time Source
SCCI TAF 2019/10/14 06:03 UTC NOAA

TAF SCCI 140416Z 1406/1506 27015KT 9999 SCT030 TN03/1416Z TX11/1418Z
TEMPO 1407/1413 BKN020
BECMG 1416/1418 22012KT FEW040
BECMG 1420/1422 25010KT
TEMPO 1503/1506 BKN020

Example: see airport list